Ardmore Cherokee — V7HR9 — position and weather

sailwx.info

Track history (hours):
 
Tides and Currents Weather Stations Pressure Air Temp Water Temp Dewpoint Dewpoint Depression Visibility Wind Speed Wind Dir Waves Ship Positions

Ardmore Cherokee

Last reported at 2018-Jul-19 23:07 UTC. Time now 2018-Jul-21 07:50 UTC.
Position N 36°11' E 015°37'.

Length 159 m; draft 6 m.

Type: Tanker. MMSI: 538005865.

Date/timePositionNaut miles runAvg speedWind from/ knotsBaromVisibWave heightAir tempDewpointWater temp
2018-Jul-19 23:07N 36°11' E 015°37'212.6
2018-Jul-19 22:58N 36°11' E 015°35'712.5
2018-Jul-19 22:23N 36°12' E 015°26'512.4
2018-Jul-19 21:58N 36°12' E 015°19'612.2
2018-Jul-19 21:29N 36°12' E 015°12'612.2
2018-Jul-19 21:00N 36°12' E 015°05'612.2
2018-Jul-19 20:30N 36°12' E 014°57'612.1
2018-Jul-19 20:00N 36°13' E 014°50'612.0
2018-Jul-19 19:30N 36°14' E 014°42'612.0
2018-Jul-19 19:00N 36°16' E 014°35'612.1
2018-Jul-19 18:30N 36°18' E 014°28'612.0
2018-Jul-19 18:00N 36°20' E 014°21'612.3
2018-Jul-19 17:30N 36°23' E 014°15'612.8
2018-Jul-19 17:00N 36°26' E 014°07'713.2
2018-Jul-19 16:30N 36°28' E 013°60'613.1
2018-Jul-19 16:00N 36°31' E 013°52'712.9
2018-Jul-19 15:30N 36°33' E 013°45'612.5
2018-Jul-19 15:00N 36°35' E 013°37'1312.6
2018-Jul-19 14:00N 36°40' E 013°23'612.4
2018-Jul-19 13:30N 36°42' E 013°15'612.3
2018-Jul-19 13:00N 36°44' E 013°08'612.0
2018-Jul-19 12:30N 36°47' E 013°01'611.9
2018-Jul-19 12:00N 36°49' E 012°55'612.0
2018-Jul-19 11:30N 36°51' E 012°48'611.7
2018-Jul-19 11:00N 36°53' E 012°41'611.6
2018-Jul-19 10:30N 36°55' E 012°34'611.5
2018-Jul-19 10:00N 36°57' E 012°27'611.7
2018-Jul-19 09:30N 36°60' E 012°20'611.6
2018-Jul-19 09:00N 37°02' E 012°14'611.6
2018-Jul-19 08:30N 37°04' E 012°07'611.5
2018-Jul-19 08:00N 37°06' E 012°01'611.5
2018-Jul-19 07:30N 37°08' E 011°54'3612.3
2018-Jul-19 04:35N 37°22' E 011°12'112.2
2018-Jul-19 04:30N 37°23' E 011°11'612.2
2018-Jul-19 04:00N 37°26' E 011°04'1811.9
2018-Jul-19 02:29N 37°33' E 010°44'611.6
2018-Jul-19 01:56N 37°36' E 010°36'8511.4
2018-Jul-18 18:26N 38°17' E 009°02'2211.5
2018-Jul-18 16:28N 38°28' E 008°37'611.8
2018-Jul-18 15:59N 38°31' E 008°31'4311.8
2018-Jul-18 12:21N 38°52' E 007°43'6312.0
2018-Jul-18 07:07N 39°22' E 006°32'313.1
2018-Jul-18 06:55N 39°24' E 006°29'713.2
2018-Jul-18 06:22N 39°27' E 006°21'912.2
2018-Jul-18 05:37N 39°32' E 006°11'412.3
2018-Jul-18 05:19N 39°34' E 006°07'412.3
2018-Jul-18 05:00N 39°36' E 006°02'712.4
2018-Jul-18 04:27N 39°39' E 005°54'612.6
2018-Jul-18 03:59N 39°42' E 005°48'712.7
2018-Jul-18 03:25N 39°45' E 005°40'512.8
2018-Jul-18 03:00N 39°48' E 005°34'3012.3
2018-Jul-18 00:32N 40°03' E 004°59'111.8
2018-Jul-18 00:29N 40°03' E 004°59'104 2.2
2018-Jul-16 02:02N 40°38' E 002°50'1510.3
2018-Jul-16 00:33N 40°38' E 003°10'210.2
2018-Jul-16 00:19N 40°38' E 003°14'13 8.8
2018-Jul-15 22:48N 40°38' E 003°31'0 0.8
2018-Jul-15 22:18N 40°38' E 003°31'0 0.8
2018-Jul-15 21:47N 40°37' E 003°30'0 0.8
2018-Jul-15 21:30N 40°37' E 003°30'0 0.8
2018-Jul-15 21:00N 40°37' E 003°30'0 0.6
2018-Jul-15 20:30N 40°37' E 003°30'27 4.9
2018-Jul-15 15:01N 40°46' E 004°02'010.4
2018-Jul-15 15:00N 40°46' E 004°02'510.4
2018-Jul-15 14:30N 40°51' E 004°03'510.1
2018-Jul-15 14:00N 40°56' E 004°03'510.2
2018-Jul-15 13:30N 41°00' E 003°58'510.9
2018-Jul-15 13:00N 41°04' E 003°53'1410.3
2018-Jul-15 11:40N 41°14' E 003°40'2 9.3
2018-Jul-15 11:25N 41°15' E 003°37'1110.3
2018-Jul-15 10:18N 41°16' E 003°22'411.5
2018-Jul-15 09:59N 41°14' E 003°17'35 4.6
2018-Jul-15 02:20N 40°59' E 002°35'0 0.5
2018-Jul-15 02:00N 40°59' E 002°35'0 0.5
2018-Jul-15 01:30N 40°59' E 002°35'0 0.5
2018-Jul-15 01:00N 40°59' E 002°35'0 0.5
2018-Jul-15 00:22N 40°59' E 002°36'0 0.5
2018-Jul-14 23:59N 40°59' E 002°36'0 0.5
2018-Jul-14 23:22N 40°58' E 002°36'0 0.5
2018-Jul-14 23:00N 40°58' E 002°37'0 0.6
2018-Jul-14 22:30N 40°58' E 002°37'0 0.5
2018-Jul-14 22:00N 40°58' E 002°37'0 0.4
2018-Jul-14 21:30N 40°58' E 002°37'0 0.4
2018-Jul-14 21:00N 40°58' E 002°38'0 0.4
2018-Jul-14 20:30N 40°58' E 002°38'0 0.3
2018-Jul-14 20:00N 40°58' E 002°38'0 0.2
2018-Jul-14 19:30N 40°58' E 002°38'0 0.2
2018-Jul-14 19:00N 40°58' E 002°38'0 0.2
2018-Jul-14 18:30N 40°58' E 002°39'0 0.2
2018-Jul-14 18:00N 40°58' E 002°39'0 0.3
2018-Jul-14 17:30N 40°58' E 002°39'0 0.3
2018-Jul-14 17:00N 40°58' E 002°39'0 0.3
2018-Jul-14 16:30N 40°58' E 002°39'0 0.3
2018-Jul-14 16:00N 40°58' E 002°39'0 0.4
2018-Jul-14 15:30N 40°58' E 002°40'0 0.8
2018-Jul-14 15:00N 40°58' E 002°39'3 5.9
2018-Jul-14 14:30N 40°58' E 002°35'5 4.4
2018-Jul-14 13:28N 40°57' E 002°29'0 0.5
2018-Jul-14 13:00N 40°57' E 002°30'0 0.6
2018-Jul-14 12:20N 40°57' E 002°30'0 0.7
2018-Jul-14 11:52N 40°57' E 002°31'0 0.8
2018-Jul-14 11:30N 40°57' E 002°31'0 0.8
2018-Jul-14 10:59N 40°57' E 002°32'0 0.9
2018-Jul-14 10:30N 40°57' E 002°32'0 0.8
2018-Jul-14 10:00N 40°57' E 002°33'1 0.9
2018-Jul-14 09:23N 40°57' E 002°33'2 0.9
2018-Jul-14 07:28N 40°58' E 002°36'3 1.0
2018-Jul-14 04:49N 40°58' E 002°39'2 1.0
2018-Jul-14 03:04N 40°59' E 002°41'0 1.0
2018-Jul-14 02:52N 40°59' E 002°42'1 1.0
2018-Jul-14 02:16N 40°59' E 002°42'0 1.0
2018-Jul-14 01:58N 40°59' E 002°43'1 0.9
2018-Jul-14 01:04N 40°60' E 002°44'0 0.8
2018-Jul-14 00:58N 40°60' E 002°44'0 0.7
2018-Jul-14 00:28N 40°60' E 002°44'0 0.6
2018-Jul-13 23:58N 41°00' E 002°44'0 0.6
2018-Jul-13 23:28N 41°00' E 002°45'0 0.6
2018-Jul-13 22:58N 41°00' E 002°45'0 0.6
2018-Jul-13 22:28N 41°01' E 002°46'0 0.6
2018-Jul-13 21:58N 41°01' E 002°46'0 0.6
2018-Jul-13 21:28N 41°01' E 002°46'0 0.6
2018-Jul-13 20:58N 41°01' E 002°47'0 0.6
2018-Jul-13 20:28N 41°01' E 002°47'0 0.7
2018-Jul-13 19:52N 41°01' E 002°47'1 1.4
2018-Jul-13 19:28N 41°02' E 002°47'4 8.4
2018-Jul-13 19:00N 41°04' E 002°42'5 9.1
2018-Jul-13 18:30N 41°06' E 002°37'611.5
2018-Jul-13 18:00N 41°08' E 002°30'711.5
2018-Jul-13 17:22N 41°12' E 002°22'411.7
2018-Jul-13 17:00N 41°14' E 002°17'611.5
2018-Jul-13 16:30N 41°17' E 002°10'3 6.7
2018-Jul-13 16:00N 41°20' E 002°09'0 0.0
2018-Jul-12 11:54N 41°20' E 002°09'0 0.0
2018-Jul-12 11:30N 41°20' E 002°09'1 1.6
2018-Jul-12 11:00N 41°20' E 002°10'4 8.2
2018-Jul-12 10:30N 41°17' E 002°12'1 1.5
2018-Jul-12 10:01N 41°17' E 002°12'2 3.8
2018-Jul-12 09:31N 41°19' E 002°12'0 0.7
2018-Jul-12 09:01N 41°19' E 002°11'0 0.2
2018-Jul-12 08:31N 41°19' E 002°11'0 0.2
2018-Jul-12 07:59N 41°19' E 002°11'0 0.0
2018-Jul-12 07:26N 41°19' E 002°11'0 0.0
2018-Jul-12 06:59N 41°19' E 002°11'0 0.0
2018-Jul-12 06:29N 41°19' E 002°11'0 0.0
2018-Jul-12 05:59N 41°19' E 002°11'0 0.0
2018-Jul-12 05:29N 41°19' E 002°11'0 0.0
2018-Jul-12 04:59N 41°19' E 002°11'0 0.0
2018-Jul-12 04:29N 41°19' E 002°11'0 0.0
2018-Jul-12 03:59N 41°19' E 002°11'0 0.0
2018-Jul-12 03:29N 41°19' E 002°11'0 0.0
2018-Jul-12 02:59N 41°19' E 002°11'0 0.0
2018-Jul-12 02:29N 41°19' E 002°11'0 0.0
2018-Jul-12 01:59N 41°19' E 002°11'0 0.0
2018-Jul-12 01:29N 41°19' E 002°11'0 0.1
2018-Jul-12 00:59N 41°19' E 002°11'0 0.0
2018-Jul-12 00:29N 41°19' E 002°11'0 0.0
2018-Jul-11 23:59N 41°19' E 002°11'0 0.0
2018-Jul-11 23:29N 41°19' E 002°11'0 0.0
2018-Jul-11 22:56N 41°19' E 002°11'0 0.0
2018-Jul-11 22:29N 41°19' E 002°11'0 0.0
2018-Jul-11 21:59N 41°19' E 002°11'0 0.0
2018-Jul-11 21:29N 41°19' E 002°11'0 0.0
2018-Jul-11 20:59N 41°19' E 002°11'0 0.0
2018-Jul-11 20:29N 41°19' E 002°11'0 0.0
2018-Jul-11 19:59N 41°19' E 002°11'0 0.0
2018-Jul-11 19:29N 41°19' E 002°11'0 0.0
2018-Jul-11 18:59N 41°19' E 002°11'0 0.0
2018-Jul-11 18:29N 41°19' E 002°11'0 0.0
2018-Jul-11 17:59N 41°19' E 002°11'0 0.1
2018-Jul-11 17:23N 41°19' E 002°11'0 0.1
2018-Jul-11 16:59N 41°19' E 002°11'0 0.2
2018-Jul-11 16:29N 41°19' E 002°11'0 0.1
2018-Jul-11 15:56N 41°19' E 002°11'0 0.0
2018-Jul-11 15:29N 41°19' E 002°11'0 0.1
2018-Jul-11 14:59N 41°19' E 002°11'0 0.3
2018-Jul-11 14:29N 41°19' E 002°11'0 0.0
2018-Jul-11 13:59N 41°19' E 002°11'0 0.0
2018-Jul-11 13:29N 41°19' E 002°11'0 0.0
2018-Jul-11 12:59N 41°19' E 002°11'0 0.0
2018-Jul-11 12:29N 41°19' E 002°11'0 0.0
2018-Jul-11 11:59N 41°19' E 002°11'0 0.0
2018-Jul-11 11:29N 41°19' E 002°11'0 0.0
2018-Jul-11 10:59N 41°19' E 002°11'0 0.1
2018-Jul-11 10:29N 41°19' E 002°11'0 0.0
2018-Jul-11 09:59N 41°19' E 002°11'0 0.1
2018-Jul-11 09:29N 41°19' E 002°11'0 0.0
2018-Jul-11 08:59N 41°19' E 002°11'0 0.0
2018-Jul-11 08:29N 41°19' E 002°11'0 0.0
2018-Jul-11 07:59N 41°19' E 002°11'0 0.0
2018-Jul-11 07:29N 41°19' E 002°11'0 0.0
2018-Jul-11 06:59N 41°19' E 002°11'0 0.0
2018-Jul-11 06:29N 41°19' E 002°11'0 0.0
2018-Jul-11 05:59N 41°19' E 002°11'0 0.0
2018-Jul-11 05:29N 41°19' E 002°11'0 0.0
2018-Jul-11 04:59N 41°19' E 002°11'0 0.0
2018-Jul-11 04:29N 41°19' E 002°11'0 0.0
2018-Jul-11 03:59N 41°19' E 002°11'0 0.0
2018-Jul-11 03:29N 41°19' E 002°11'0 0.1
2018-Jul-11 02:59N 41°19' E 002°11'0 0.1
2018-Jul-11 02:29N 41°19' E 002°11'0 0.0
2018-Jul-11 01:59N 41°19' E 002°11'0 0.4
2018-Jul-11 01:30N 41°19' E 002°12'3 5.7
2018-Jul-11 01:00N 41°16' E 002°13'510.3
2018-Jul-11 00:30N 41°11' E 002°10'5 9.1
2018-Jul-11 00:00N 41°07' E 002°08'712.5
2018-Jul-10 23:29N 41°02' E 002°04'612.3
2018-Jul-10 23:00N 40°56' E 002°00'7012.5
2018-Jul-10 17:22N 39°53' E 001°20'512.5
2018-Jul-10 17:00N 39°49' E 001°17'1212.4
2018-Jul-10 16:02N 39°38' E 001°11'112.4
2018-Jul-10 15:58N 39°37' E 001°11'612.4
2018-Jul-10 15:30N 39°32' E 001°08'812.5
2018-Jul-10 14:51N 39°24' E 001°04'512.6
2018-Jul-10 14:30N 39°21' E 001°00'612.6
2018-Jul-10 13:59N 39°15' E 000°57'712.7
2018-Jul-10 13:27N 39°09' E 000°53'612.6
2018-Jul-10 12:58N 39°03' E 000°49'712.7
2018-Jul-10 12:26N 38°57' E 000°45'712.8
2018-Jul-10 11:55N 38°51' E 000°42'512.8
2018-Jul-10 11:29N 38°46' E 000°39'612.6
2018-Jul-10 11:00N 38°40' E 000°36'712.0
2018-Jul-10 10:23N 38°35' E 000°31'512.4
2018-Jul-10 09:59N 38°30' E 000°27'812.6
2018-Jul-10 09:22N 38°24' E 000°22'512.4
2018-Jul-10 09:00N 38°20' E 000°19'812.4
2018-Jul-10 08:20N 38°13' E 000°13'412.3
2018-Jul-10 08:00N 38°10' E 000°10'612.5
2018-Jul-10 07:30N 38°04' E 000°06'612.5
2018-Jul-10 07:00N 37°59' E 000°02'712.0
2018-Jul-10 06:23N 37°53' W 000°04'512.1
2018-Jul-10 06:00N 37°49' W 000°07'612.0
2018-Jul-10 05:29N 37°44' W 000°12'612.2
2018-Jul-10 05:00N 37°39' W 000°16'612.1
2018-Jul-10 04:29N 37°34' W 000°20'612.2
2018-Jul-10 04:00N 37°29' W 000°24'612.1
2018-Jul-10 03:30N 37°25' W 000°29'612.2
2018-Jul-10 03:00N 37°20' W 000°35'612.0
2018-Jul-10 02:30N 37°16' W 000°40'612.0
2018-Jul-10 02:00N 37°12' W 000°46'611.7
2018-Jul-10 01:30N 37°09' W 000°52'611.6
2018-Jul-10 01:00N 37°05' W 000°57'611.7
2018-Jul-10 00:30N 37°01' W 001°03'612.0
2018-Jul-10 00:00N 36°57' W 001°08'612.1
2018-Jul-09 23:29N 36°53' W 001°15'  
Track history (hours):
 
Tides and Currents Weather Stations Pressure Air Temp Water Temp Dewpoint Dewpoint Depression Visibility Wind Speed Wind Dir Waves Ship Positions

Ardmore Cherokee

Last reported at 2018-Jul-19 23:07 UTC. Time now 2018-Jul-21 07:50 UTC.
Position N 36°11' E 015°37'.

Length 159 m; draft 6 m.

Type: Tanker. MMSI: 538005865.

Date/timePositionNaut miles runAvg speedWind from/ knotsBaromVisibWave heightAir tempDewpointWater temp
2018-Jul-19 23:07N 36°11' E 015°37'212.6
2018-Jul-19 22:58N 36°11' E 015°35'712.5
2018-Jul-19 22:23N 36°12' E 015°26'512.4
2018-Jul-19 21:58N 36°12' E 015°19'612.2
2018-Jul-19 21:29N 36°12' E 015°12'612.2
2018-Jul-19 21:00N 36°12' E 015°05'612.2
2018-Jul-19 20:30N 36°12' E 014°57'612.1
2018-Jul-19 20:00N 36°13' E 014°50'612.0
2018-Jul-19 19:30N 36°14' E 014°42'612.0
2018-Jul-19 19:00N 36°16' E 014°35'612.1
2018-Jul-19 18:30N 36°18' E 014°28'612.0
2018-Jul-19 18:00N 36°20' E 014°21'612.3
2018-Jul-19 17:30N 36°23' E 014°15'612.8
2018-Jul-19 17:00N 36°26' E 014°07'713.2
2018-Jul-19 16:30N 36°28' E 013°60'613.1
2018-Jul-19 16:00N 36°31' E 013°52'712.9
2018-Jul-19 15:30N 36°33' E 013°45'612.5
2018-Jul-19 15:00N 36°35' E 013°37'1312.6
2018-Jul-19 14:00N 36°40' E 013°23'612.4
2018-Jul-19 13:30N 36°42' E 013°15'612.3
2018-Jul-19 13:00N 36°44' E 013°08'612.0
2018-Jul-19 12:30N 36°47' E 013°01'611.9
2018-Jul-19 12:00N 36°49' E 012°55'612.0
2018-Jul-19 11:30N 36°51' E 012°48'611.7
2018-Jul-19 11:00N 36°53' E 012°41'611.6
2018-Jul-19 10:30N 36°55' E 012°34'611.5
2018-Jul-19 10:00N 36°57' E 012°27'611.7
2018-Jul-19 09:30N 36°60' E 012°20'611.6
2018-Jul-19 09:00N 37°02' E 012°14'611.6
2018-Jul-19 08:30N 37°04' E 012°07'611.5
2018-Jul-19 08:00N 37°06' E 012°01'611.5
2018-Jul-19 07:30N 37°08' E 011°54'3612.3
2018-Jul-19 04:35N 37°22' E 011°12'112.2
2018-Jul-19 04:30N 37°23' E 011°11'612.2
2018-Jul-19 04:00N 37°26' E 011°04'1811.9
2018-Jul-19 02:29N 37°33' E 010°44'611.6
2018-Jul-19 01:56N 37°36' E 010°36'8511.4
2018-Jul-18 18:26N 38°17' E 009°02'2211.5
2018-Jul-18 16:28N 38°28' E 008°37'611.8
2018-Jul-18 15:59N 38°31' E 008°31'4311.8
2018-Jul-18 12:21N 38°52' E 007°43'6312.0
2018-Jul-18 07:07N 39°22' E 006°32'313.1
2018-Jul-18 06:55N 39°24' E 006°29'713.2
2018-Jul-18 06:22N 39°27' E 006°21'912.2
2018-Jul-18 05:37N 39°32' E 006°11'412.3
2018-Jul-18 05:19N 39°34' E 006°07'412.3
2018-Jul-18 05:00N 39°36' E 006°02'712.4
2018-Jul-18 04:27N 39°39' E 005°54'612.6
2018-Jul-18 03:59N 39°42' E 005°48'712.7
2018-Jul-18 03:25N 39°45' E 005°40'512.8
2018-Jul-18 03:00N 39°48' E 005°34'3012.3
2018-Jul-18 00:32N 40°03' E 004°59'111.8
2018-Jul-18 00:29N 40°03' E 004°59'104 2.2
2018-Jul-16 02:02N 40°38' E 002°50'1510.3
2018-Jul-16 00:33N 40°38' E 003°10'210.2
2018-Jul-16 00:19N 40°38' E 003°14'13 8.8
2018-Jul-15 22:48N 40°38' E 003°31'0 0.8
2018-Jul-15 22:18N 40°38' E 003°31'0 0.8
2018-Jul-15 21:47N 40°37' E 003°30'0 0.8
2018-Jul-15 21:30N 40°37' E 003°30'0 0.8
2018-Jul-15 21:00N 40°37' E 003°30'0 0.6
2018-Jul-15 20:30N 40°37' E 003°30'27 4.9
2018-Jul-15 15:01N 40°46' E 004°02'010.4
2018-Jul-15 15:00N 40°46' E 004°02'510.4
2018-Jul-15 14:30N 40°51' E 004°03'510.1
2018-Jul-15 14:00N 40°56' E 004°03'510.2
2018-Jul-15 13:30N 41°00' E 003°58'510.9
2018-Jul-15 13:00N 41°04' E 003°53'1410.3
2018-Jul-15 11:40N 41°14' E 003°40'2 9.3
2018-Jul-15 11:25N 41°15' E 003°37'1110.3
2018-Jul-15 10:18N 41°16' E 003°22'411.5
2018-Jul-15 09:59N 41°14' E 003°17'35 4.6
2018-Jul-15 02:20N 40°59' E 002°35'0 0.5
2018-Jul-15 02:00N 40°59' E 002°35'0 0.5
2018-Jul-15 01:30N 40°59' E 002°35'0 0.5
2018-Jul-15 01:00N 40°59' E 002°35'0 0.5
2018-Jul-15 00:22N 40°59' E 002°36'0 0.5
2018-Jul-14 23:59N 40°59' E 002°36'0 0.5
2018-Jul-14 23:22N 40°58' E 002°36'0 0.5
2018-Jul-14 23:00N 40°58' E 002°37'0 0.6
2018-Jul-14 22:30N 40°58' E 002°37'0 0.5
2018-Jul-14 22:00N 40°58' E 002°37'0 0.4
2018-Jul-14 21:30N 40°58' E 002°37'0 0.4
2018-Jul-14 21:00N 40°58' E 002°38'0 0.4
2018-Jul-14 20:30N 40°58' E 002°38'0 0.3
2018-Jul-14 20:00N 40°58' E 002°38'0 0.2
2018-Jul-14 19:30N 40°58' E 002°38'0 0.2
2018-Jul-14 19:00N 40°58' E 002°38'0 0.2
2018-Jul-14 18:30N 40°58' E 002°39'0 0.2
2018-Jul-14 18:00N 40°58' E 002°39'0 0.3
2018-Jul-14 17:30N 40°58' E 002°39'0 0.3
2018-Jul-14 17:00N 40°58' E 002°39'0 0.3
2018-Jul-14 16:30N 40°58' E 002°39'0 0.3
2018-Jul-14 16:00N 40°58' E 002°39'0 0.4
2018-Jul-14 15:30N 40°58' E 002°40'0 0.8
2018-Jul-14 15:00N 40°58' E 002°39'3 5.9
2018-Jul-14 14:30N 40°58' E 002°35'5 4.4
2018-Jul-14 13:28N 40°57' E 002°29'0 0.5
2018-Jul-14 13:00N 40°57' E 002°30'0 0.6
2018-Jul-14 12:20N 40°57' E 002°30'0 0.7
2018-Jul-14 11:52N 40°57' E 002°31'0 0.8
2018-Jul-14 11:30N 40°57' E 002°31'0 0.8
2018-Jul-14 10:59N 40°57' E 002°32'0 0.9
2018-Jul-14 10:30N 40°57' E 002°32'0 0.8
2018-Jul-14 10:00N 40°57' E 002°33'1 0.9
2018-Jul-14 09:23N 40°57' E 002°33'2 0.9
2018-Jul-14 07:28N 40°58' E 002°36'3 1.0
2018-Jul-14 04:49N 40°58' E 002°39'2 1.0
2018-Jul-14 03:04N 40°59' E 002°41'0 1.0
2018-Jul-14 02:52N 40°59' E 002°42'1 1.0
2018-Jul-14 02:16N 40°59' E 002°42'0 1.0
2018-Jul-14 01:58N 40°59' E 002°43'1 0.9
2018-Jul-14 01:04N 40°60' E 002°44'0 0.8
2018-Jul-14 00:58N 40°60' E 002°44'0 0.7
2018-Jul-14 00:28N 40°60' E 002°44'0 0.6
2018-Jul-13 23:58N 41°00' E 002°44'0 0.6
2018-Jul-13 23:28N 41°00' E 002°45'0 0.6
2018-Jul-13 22:58N 41°00' E 002°45'0 0.6
2018-Jul-13 22:28N 41°01' E 002°46'0 0.6
2018-Jul-13 21:58N 41°01' E 002°46'0 0.6
2018-Jul-13 21:28N 41°01' E 002°46'0 0.6
2018-Jul-13 20:58N 41°01' E 002°47'0 0.6
2018-Jul-13 20:28N 41°01' E 002°47'0 0.7
2018-Jul-13 19:52N 41°01' E 002°47'1 1.4
2018-Jul-13 19:28N 41°02' E 002°47'4 8.4
2018-Jul-13 19:00N 41°04' E 002°42'5 9.1
2018-Jul-13 18:30N 41°06' E 002°37'611.5
2018-Jul-13 18:00N 41°08' E 002°30'711.5
2018-Jul-13 17:22N 41°12' E 002°22'411.7
2018-Jul-13 17:00N 41°14' E 002°17'611.5
2018-Jul-13 16:30N 41°17' E 002°10'3 6.7
2018-Jul-13 16:00N 41°20' E 002°09'0 0.0
2018-Jul-12 11:54N 41°20' E 002°09'0 0.0
2018-Jul-12 11:30N 41°20' E 002°09'1 1.6
2018-Jul-12 11:00N 41°20' E 002°10'4 8.2
2018-Jul-12 10:30N 41°17' E 002°12'1 1.5
2018-Jul-12 10:01N 41°17' E 002°12'2 3.8
2018-Jul-12 09:31N 41°19' E 002°12'0 0.7
2018-Jul-12 09:01N 41°19' E 002°11'0 0.2
2018-Jul-12 08:31N 41°19' E 002°11'0 0.2
2018-Jul-12 07:59N 41°19' E 002°11'0 0.0
2018-Jul-12 07:26N 41°19' E 002°11'0 0.0
2018-Jul-12 06:59N 41°19' E 002°11'0 0.0
2018-Jul-12 06:29N 41°19' E 002°11'0 0.0
2018-Jul-12 05:59N 41°19' E 002°11'0 0.0
2018-Jul-12 05:29N 41°19' E 002°11'0 0.0
2018-Jul-12 04:59N 41°19' E 002°11'0 0.0
2018-Jul-12 04:29N 41°19' E 002°11'0 0.0
2018-Jul-12 03:59N 41°19' E 002°11'0 0.0
2018-Jul-12 03:29N 41°19' E 002°11'0 0.0
2018-Jul-12 02:59N 41°19' E 002°11'0 0.0
2018-Jul-12 02:29N 41°19' E 002°11'0 0.0
2018-Jul-12 01:59N 41°19' E 002°11'0 0.0
2018-Jul-12 01:29N 41°19' E 002°11'0 0.1
2018-Jul-12 00:59N 41°19' E 002°11'0 0.0
2018-Jul-12 00:29N 41°19' E 002°11'0 0.0
2018-Jul-11 23:59N 41°19' E 002°11'0 0.0
2018-Jul-11 23:29N 41°19' E 002°11'0 0.0
2018-Jul-11 22:56N 41°19' E 002°11'0 0.0
2018-Jul-11 22:29N 41°19' E 002°11'0 0.0
2018-Jul-11 21:59N 41°19' E 002°11'0 0.0
2018-Jul-11 21:29N 41°19' E 002°11'0 0.0
2018-Jul-11 20:59N 41°19' E 002°11'0 0.0
2018-Jul-11 20:29N 41°19' E 002°11'0 0.0
2018-Jul-11 19:59N 41°19' E 002°11'0 0.0
2018-Jul-11 19:29N 41°19' E 002°11'0 0.0
2018-Jul-11 18:59N 41°19' E 002°11'0 0.0
2018-Jul-11 18:29N 41°19' E 002°11'0 0.0
2018-Jul-11 17:59N 41°19' E 002°11'0 0.1
2018-Jul-11 17:23N 41°19' E 002°11'0 0.1
2018-Jul-11 16:59N 41°19' E 002°11'0 0.2
2018-Jul-11 16:29N 41°19' E 002°11'0 0.1
2018-Jul-11 15:56N 41°19' E 002°11'0 0.0
2018-Jul-11 15:29N 41°19' E 002°11'0 0.1
2018-Jul-11 14:59N 41°19' E 002°11'0 0.3
2018-Jul-11 14:29N 41°19' E 002°11'0 0.0
2018-Jul-11 13:59N 41°19' E 002°11'0 0.0
2018-Jul-11 13:29N 41°19' E 002°11'0 0.0
2018-Jul-11 12:59N 41°19' E 002°11'0 0.0
2018-Jul-11 12:29N 41°19' E 002°11'0 0.0
2018-Jul-11 11:59N 41°19' E 002°11'0 0.0
2018-Jul-11 11:29N 41°19' E 002°11'0 0.0
2018-Jul-11 10:59N 41°19' E 002°11'0 0.1
2018-Jul-11 10:29N 41°19' E 002°11'0 0.0
2018-Jul-11 09:59N 41°19' E 002°11'0 0.1
2018-Jul-11 09:29N 41°19' E 002°11'0 0.0
2018-Jul-11 08:59N 41°19' E 002°11'0 0.0
2018-Jul-11 08:29N 41°19' E 002°11'0 0.0
2018-Jul-11 07:59N 41°19' E 002°11'0 0.0
2018-Jul-11 07:29N 41°19' E 002°11'0 0.0
2018-Jul-11 06:59N 41°19' E 002°11'0 0.0
2018-Jul-11 06:29N 41°19' E 002°11'0 0.0
2018-Jul-11 05:59N 41°19' E 002°11'0 0.0
2018-Jul-11 05:29N 41°19' E 002°11'0 0.0
2018-Jul-11 04:59N 41°19' E 002°11'0 0.0
2018-Jul-11 04:29N 41°19' E 002°11'0 0.0
2018-Jul-11 03:59N 41°19' E 002°11'0 0.0
2018-Jul-11 03:29N 41°19' E 002°11'0 0.1
2018-Jul-11 02:59N 41°19' E 002°11'0 0.1
2018-Jul-11 02:29N 41°19' E 002°11'0 0.0
2018-Jul-11 01:59N 41°19' E 002°11'0 0.4
2018-Jul-11 01:30N 41°19' E 002°12'3 5.7
2018-Jul-11 01:00N 41°16' E 002°13'510.3
2018-Jul-11 00:30N 41°11' E 002°10'5 9.1
2018-Jul-11 00:00N 41°07' E 002°08'712.5
2018-Jul-10 23:29N 41°02' E 002°04'612.3
2018-Jul-10 23:00N 40°56' E 002°00'7012.5
2018-Jul-10 17:22N 39°53' E 001°20'512.5
2018-Jul-10 17:00N 39°49' E 001°17'1212.4
2018-Jul-10 16:02N 39°38' E 001°11'112.4
2018-Jul-10 15:58N 39°37' E 001°11'612.4
2018-Jul-10 15:30N 39°32' E 001°08'812.5
2018-Jul-10 14:51N 39°24' E 001°04'512.6
2018-Jul-10 14:30N 39°21' E 001°00'612.6
2018-Jul-10 13:59N 39°15' E 000°57'712.7
2018-Jul-10 13:27N 39°09' E 000°53'612.6
2018-Jul-10 12:58N 39°03' E 000°49'712.7
2018-Jul-10 12:26N 38°57' E 000°45'712.8
2018-Jul-10 11:55N 38°51' E 000°42'512.8
2018-Jul-10 11:29N 38°46' E 000°39'612.6
2018-Jul-10 11:00N 38°40' E 000°36'712.0
2018-Jul-10 10:23N 38°35' E 000°31'512.4
2018-Jul-10 09:59N 38°30' E 000°27'812.6
2018-Jul-10 09:22N 38°24' E 000°22'512.4
2018-Jul-10 09:00N 38°20' E 000°19'812.4
2018-Jul-10 08:20N 38°13' E 000°13'412.3
2018-Jul-10 08:00N 38°10' E 000°10'612.5
2018-Jul-10 07:30N 38°04' E 000°06'612.5
2018-Jul-10 07:00N 37°59' E 000°02'712.0
2018-Jul-10 06:23N 37°53' W 000°04'512.1
2018-Jul-10 06:00N 37°49' W 000°07'612.0
2018-Jul-10 05:29N 37°44' W 000°12'612.2
2018-Jul-10 05:00N 37°39' W 000°16'612.1
2018-Jul-10 04:29N 37°34' W 000°20'612.2
2018-Jul-10 04:00N 37°29' W 000°24'612.1
2018-Jul-10 03:30N 37°25' W 000°29'612.2
2018-Jul-10 03:00N 37°20' W 000°35'612.0
2018-Jul-10 02:30N 37°16' W 000°40'612.0
2018-Jul-10 02:00N 37°12' W 000°46'611.7
2018-Jul-10 01:30N 37°09' W 000°52'611.6
2018-Jul-10 01:00N 37°05' W 000°57'611.7
2018-Jul-10 00:30N 37°01' W 001°03'612.0
2018-Jul-10 00:00N 36°57' W 001°08'612.1
2018-Jul-09 23:29N 36°53' W 001°15'  

Dump ship's entire track history